Time;durP1;ratioP1;P1;durP2;ratioP2;P2;SDS_P1;SDS_P2;PMS_P1;PMS_P2;Temp;Humidity;BMP_temperature;BMP_pressure;BME280_temperature;BME280_humidity;BME280_pressure;Samples;Min_cycle;Max_cycle;Signal;HPM_P1;HPM_P2
2023/10/09 00:01:13;;;;;;;;;;;;;;;17.06;55.33;101531.81;4959737;29;1070;-60
2023/10/09 00:03:41;;;;;;;;;;;;;;;16.92;54.58;101544.31;4959241;29;993;-61
2023/10/09 00:06:07;;;;;;;;;;;;;;;16.74;54.62;101539.94;4950695;28;1906;-61
2023/10/09 00:08:34;;;;;;;;;;;;;;;16.66;54.56;101537.66;4948210;29;1109;-60
2023/10/09 00:13:51;;;;;;;;;;;;;;;17.17;55.16;101526.44;4959438;29;1034;-61
2023/10/09 00:16:24;;;;;;;;;;;;;;;16.90;55.08;101519.84;4959369;29;1148;-61
2023/10/09 00:18:50;;;;;;;;;;;;;;;16.76;54.73;101527.63;4947216;29;1150;-60
2023/10/09 00:21:15;;;;;;;;;;;;;;;16.69;54.40;101532.47;4958139;29;924;-60
2023/10/09 00:23:41;;;;;;;;;;;;;;;17.45;55.43;101523.41;4959158;29;1164;-60
2023/10/09 00:26:12;;;;;;;;;;;;;;;17.44;54.85;101527.25;4958913;29;1910;-61
2023/10/09 00:28:47;;;;;;;;;;;;;;;17.06;55.23;101526.31;4957756;29;1247;-60
2023/10/09 00:31:16;;;;;;;;;;;;;;;16.83;54.80;101526.59;4946679;29;1124;-60
2023/10/09 00:33:44;;;;;;;;;;;;;;;16.72;54.55;101518.22;4949917;28;857;-60
2023/10/09 00:36:09;;;;;;;;;;;;;;;16.68;54.30;101522.56;4955939;28;1042;-60
2023/10/09 00:38:36;;;;;;;;;;;;;;;17.56;55.04;101512.53;4964191;28;1054;-60
2023/10/09 00:41:20;;;;;;;;;;;;;;;17.38;55.00;101517.31;4957642;29;1187;-60
2023/10/09 00:43:59;;;;;;;;;;;;;;;16.93;55.38;101513.00;4957188;29;1136;-60
2023/10/09 00:46:24;;;;;;;;;;;;;;;16.80;54.98;101507.88;4946723;29;1973;-60
2023/10/09 00:48:51;;;;;;;;;;;;;;;16.68;54.84;101505.28;4957601;29;1158;-60
2023/10/09 00:51:18;;;;;;;;;;;;;;;16.57;54.63;101493.34;4958898;29;1124;-59
2023/10/09 00:53:58;;;;;;;;;;;;;;;17.79;54.85;101495.66;4945853;29;1002;-59
2023/10/09 00:58:55;;;;;;;;;;;;;;;16.93;55.26;101508.34;4957288;28;1129;-59
2023/10/09 01:01:28;;;;;;;;;;;;;;;16.78;54.72;101524.63;4948299;29;1462;-60
2023/10/09 01:03:54;;;;;;;;;;;;;;;16.63;54.80;101533.50;4956862;29;1127;-59
2023/10/09 01:06:33;;;;;;;;;;;;;;;17.69;55.18;101517.56;4957069;29;1977;-59
2023/10/09 01:09:09;;;;;;;;;;;;;;;17.22;55.12;101507.25;4948855;29;1055;-60
2023/10/09 01:11:41;;;;;;;;;;;;;;;16.94;55.14;101503.66;4953391;29;1057;-59
2023/10/09 01:16:33;;;;;;;;;;;;;;;16.64;54.86;101528.84;4958272;29;1108;-61
2023/10/09 01:19:06;;;;;;;;;;;;;;;16.89;55.46;101526.41;4958576;29;1049;-61
2023/10/09 01:21:31;;;;;;;;;;;;;;;17.73;54.82;101526.13;4945193;28;1133;-61
2023/10/09 01:24:31;;;;;;;;;;;;;;;17.14;55.45;101524.19;4958400;29;990;-60
2023/10/09 01:26:49;;;;;;;;;;;;;;;16.84;54.91;101533.75;4955929;29;1938;-60
2023/10/09 01:29:21;;;;;;;;;;;;;;;16.71;54.67;101535.78;4945513;29;1030;-60
2023/10/09 01:32:00;;;;;;;;;;;;;;;16.63;54.43;101554.63;4957127;29;1389;-60
2023/10/09 01:37:11;;;;;;;;;;;;;;;17.34;54.89;101556.59;4958251;29;1065;-60
2023/10/09 01:39:41;;;;;;;;;;;;;;;16.99;55.27;101557.84;4957922;29;1113;-60
2023/10/09 01:42:07;;;;;;;;;;;;;;;16.73;54.85;101572.09;4956853;29;1296;-61
2023/10/09 01:44:38;;;;;;;;;;;;;;;16.62;54.71;101586.78;4957491;28;1121;-61
2023/10/09 01:47:07;;;;;;;;;;;;;;;17.23;55.76;101589.44;4957771;29;1922;-61
2023/10/09 01:49:37;;;;;;;;;;;;;;;17.48;55.01;101599.06;4958207;29;1086;-61
2023/10/09 01:52:09;;;;;;;;;;;;;;;17.01;55.40;101603.22;4945375;29;1137;-60
2023/10/09 01:54:37;;;;;;;;;;;;;;;16.83;55.25;101601.59;4950132;29;1073;-61
2023/10/09 01:57:05;;;;;;;;;;;;;;;16.69;54.76;101592.91;4961548;28;1054;-60
2023/10/09 01:59:37;;;;;;;;;;;;;;;16.61;54.44;101593.34;4956584;29;1253;-59
2023/10/09 02:02:33;;;;;;;;;;;;;;;17.44;55.64;101590.47;4956235;29;1368;-60
2023/10/09 02:04:53;;;;;;;;;;;;;;;17.38;55.15;101605.28;4957573;29;1453;-60
2023/10/09 02:07:26;;;;;;;;;;;;;;;17.00;55.35;101606.19;4951668;28;1910;-59
2023/10/09 02:09:53;;;;;;;;;;;;;;;16.78;55.18;101604.25;4951802;29;1105;-59
2023/10/09 02:12:21;;;;;;;;;;;;;;;16.73;54.57;101605.03;4950724;29;1053;-59
2023/10/09 02:14:47;;;;;;;;;;;;;;;17.72;55.29;101610.56;4967144;28;1240;-59
2023/10/09 02:17:20;;;;;;;;;;;;;;;17.46;55.00;101609.50;4957428;29;1060;-59
2023/10/09 02:19:49;;;;;;;;;;;;;;;17.02;55.11;101620.53;4957360;29;1113;-59
2023/10/09 02:22:15;;;;;;;;;;;;;;;16.89;54.92;101649.22;4949589;29;1120;-59
2023/10/09 02:24:57;;;;;;;;;;;;;;;16.74;54.50;101664.34;4957331;29;1006;-59
2023/10/09 02:27:40;;;;;;;;;;;;;;;16.62;54.58;101658.16;4956478;29;1914;-59
2023/10/09 02:30:15;;;;;;;;;;;;;;;17.72;55.18;101660.06;4957654;29;1208;-59
2023/10/09 02:32:42;;;;;;;;;;;;;;;17.26;55.37;101656.81;4956290;29;1041;-59
2023/10/09 02:35:18;;;;;;;;;;;;;;;16.85;55.61;101648.03;4957326;29;1132;-60
2023/10/09 02:37:46;;;;;;;;;;;;;;;16.80;55.10;101656.19;4957571;29;1086;-59
2023/10/09 02:40:22;;;;;;;;;;;;;;;16.69;55.26;101657.97;4946940;29;1070;-59
2023/10/09 02:42:49;;;;;;;;;;;;;;;17.79;54.56;101666.22;4955677;29;1023;-60
2023/10/09 02:45:16;;;;;;;;;;;;;;;17.13;55.56;101671.78;4965844;28;2079;-59
2023/10/09 02:47:42;;;;;;;;;;;;;;;16.86;55.29;101680.75;4955058;29;1992;-59
2023/10/09 02:50:19;;;;;;;;;;;;;;;16.76;54.93;101683.34;4945536;29;1621;-59
2023/10/09 02:52:47;;;;;;;;;;;;;;;16.66;54.81;101686.78;4956838;29;1119;-59
2023/10/09 02:55:25;;;;;;;;;;;;;;;17.84;54.71;101654.41;4955698;29;1041;-59
2023/10/09 02:58:05;;;;;;;;;;;;;;;17.22;55.53;101651.03;4956916;28;846;-60
2023/10/09 03:00:31;;;;;;;;;;;;;;;16.92;55.34;101654.19;4957898;29;1102;-60
2023/10/09 03:02:58;;;;;;;;;;;;;;;16.80;54.67;101665.25;4950607;29;1149;-60
2023/10/09 03:05:29;;;;;;;;;;;;;;;16.68;54.80;101686.53;4959025;29;1131;-60
2023/10/09 03:07:55;;;;;;;;;;;;;;;16.62;54.78;101691.13;4950659;29;1930;-60
2023/10/09 03:10:25;;;;;;;;;;;;;;;17.86;54.63;101698.19;4947895;29;1042;-59
2023/10/09 03:12:53;;;;;;;;;;;;;;;17.28;55.55;101688.47;4959378;29;1292;-58
2023/10/09 03:15:21;;;;;;;;;;;;;;;16.93;55.42;101691.59;4960166;28;1208;-56
2023/10/09 03:17:48;;;;;;;;;;;;;;;16.83;54.92;101680.41;4960208;29;1065;-56
2023/10/09 03:20:17;;;;;;;;;;;;;;;16.67;54.78;101677.44;4955311;29;1041;-57
2023/10/09 03:22:44;;;;;;;;;;;;;;;17.10;55.96;101692.34;4955698;29;886;-56
2023/10/09 03:25:16;;;;;;;;;;;;;;;17.70;54.73;101703.53;4958019;29;1072;-57
2023/10/09 03:27:44;;;;;;;;;;;;;;;17.09;55.49;101715.41;4960565;29;1980;-56
2023/10/09 03:30:17;;;;;;;;;;;;;;;16.91;54.90;101711.06;4958794;29;1164;-56
2023/10/09 03:32:43;;;;;;;;;;;;;;;16.78;54.69;101708.63;4960260;29;1037;-56
2023/10/09 03:35:13;;;;;;;;;;;;;;;16.59;54.47;101706.16;4947256;29;1235;-54
2023/10/09 03:37:39;;;;;;;;;;;;;;;16.78;55.57;101708.63;4959825;28;1136;-54
2023/10/09 03:40:07;;;;;;;;;;;;;;;17.78;54.37;101719.56;4959915;29;1057;-56
2023/10/09 03:42:36;;;;;;;;;;;;;;;17.10;55.20;101719.84;4959614;29;1116;-56
2023/10/09 03:45:05;;;;;;;;;;;;;;;16.84;55.17;101732.34;4959037;29;1146;-55
2023/10/09 03:47:31;;;;;;;;;;;;;;;16.71;54.78;101746.44;4943661;29;1981;-54
2023/10/09 03:49:57;;;;;;;;;;;;;;;17.27;55.65;101749.19;4959423;29;1208;-54
2023/10/09 03:52:25;;;;;;;;;;;;;;;17.60;54.28;101744.66;4946709;29;1038;-57
2023/10/09 03:54:50;;;;;;;;;;;;;;;17.04;55.32;101745.59;4959928;29;1029;-55
2023/10/09 03:57:19;;;;;;;;;;;;;;;16.84;55.04;101748.00;4958159;28;1120;-56
2023/10/09 03:59:47;;;;;;;;;;;;;;;16.72;54.66;101739.88;4950462;29;1037;-55
2023/10/09 04:02:13;;;;;;;;;;;;;;;16.58;54.39;101729.22;4946538;29;1118;-55
2023/10/09 04:04:39;;;;;;;;;;;;;;;17.26;55.41;101742.88;4959180;29;1049;-56
2023/10/09 04:07:07;;;;;;;;;;;;;;;17.54;54.63;101756.69;4959273;29;1918;-56
2023/10/09 04:09:39;;;;;;;;;;;;;;;17.02;55.07;101755.16;4954073;28;1053;-59
2023/10/09 04:14:48;;;;;;;;;;;;;;;16.65;54.79;101773.00;4947155;29;983;-60
2023/10/09 04:20:37;;;;;;;;;;;;;;;17.74;54.38;101778.94;4957060;29;997;-56
2023/10/09 04:22:39;;;;;;;;;;;;;;;16.97;55.46;101772.41;4939642;29;1333;-56
2023/10/09 04:25:07;;;;;;;;;;;;;;;16.72;55.14;101779.13;4944566;29;1037;-57
2023/10/09 04:27:44;;;;;;;;;;;;;;;16.62;54.84;101786.38;4958257;29;1980;-58
2023/10/09 04:30:15;;;;;;;;;;;;;;;17.34;55.60;101795.75;4947094;29;1123;-58
2023/10/09 04:32:44;;;;;;;;;;;;;;;17.39;55.07;101795.78;4956806;29;1033;-57
2023/10/09 04:35:22;;;;;;;;;;;;;;;16.96;55.24;101792.72;4954052;29;879;-57
2023/10/09 04:37:52;;;;;;;;;;;;;;;17.77;54.35;101799.59;4945169;29;1089;-57
2023/10/09 04:43:06;;;;;;;;;;;;;;;16.66;52.19;101795.78;4946260;29;967;-57
2023/10/09 04:48:09;;;;;;;;;;;;;;;16.33;49.71;101803.72;4947632;29;2705;-58
2023/10/09 04:55:53;;;;;;;;;;;;;;;16.67;51.17;101801.03;4952020;29;1028;-58
2023/10/09 04:58:32;;;;;;;;;;;;;;;17.68;52.59;101809.38;4944489;29;1143;-56
2023/10/09 05:03:42;;;;;;;;;;;;;;;16.71;49.94;101807.69;4952132;29;1041;-58
2023/10/09 05:06:21;;;;;;;;;;;;;;;16.63;48.89;101810.00;4958344;29;1967;-57
2023/10/09 05:08:53;;;;;;;;;;;;;;;17.67;51.56;101815.97;4954521;29;1270;-58
2023/10/09 05:12:09;;;;;;;;;;;;;;;16.90;51.35;101830.28;4954655;28;1433;-59
2023/10/09 05:14:13;;;;;;;;;;;;;;;16.70;49.54;101825.22;4948238;28;1548;-59
2023/10/09 05:17:04;;;;;;;;;;;;;;;17.52;50.78;101827.63;4956143;28;1590;-57
2023/10/09 05:19:54;;;;;;;;;;;;;;;17.03;50.25;101829.09;4954183;28;1275;-59
2023/10/09 05:22:29;;;;;;;;;;;;;;;17.47;50.54;101833.03;4956536;29;1045;-52
2023/10/09 05:24:58;;;;;;;;;;;;;;;17.22;51.15;101832.44;4957455;29;1297;-56
2023/10/09 05:30:26;;;;;;;;;;;;;;;17.25;49.97;101842.06;4953943;29;1005;-57
2023/10/09 05:32:58;;;;;;;;;;;;;;;17.26;50.19;101852.84;4950882;29;1113;-58
2023/10/09 05:36:04;;;;;;;;;;;;;;;16.98;49.14;101853.75;4950294;29;1198;-56
2023/10/09 05:38:23;;;;;;;;;;;;;;;17.98;49.75;101861.25;4938237;29;1652;-57
2023/10/09 05:40:53;;;;;;;;;;;;;;;17.21;49.85;101857.41;4938765;29;1105;-57
2023/10/09 05:46:09;;;;;;;;;;;;;;;16.83;47.72;101884.53;4943507;29;2001;-57
2023/10/09 06:04:33;;;;;;;;;;;;;;;17.17;48.32;101909.28;4947034;29;1476;-58
2023/10/09 06:07:13;;;;;;;;;;;;;;;17.52;49.50;101916.44;4951474;29;1910;-54
2023/10/09 06:09:49;;;;;;;;;;;;;;;17.13;48.60;101915.56;4951246;29;1127;-59
2023/10/09 06:12:33;;;;;;;;;;;;;;;16.96;47.65;101910.88;4946982;29;923;-58
2023/10/09 06:15:18;;;;;;;;;;;;;;;16.76;47.15;101923.13;4945102;29;1093;-57
2023/10/09 06:17:50;;;;;;;;;;;;;;;17.69;48.71;101918.34;4945384;29;1034;-59
2023/10/09 06:23:15;;;;;;;;;;;;;;;16.91;47.32;101927.25;4956350;29;1120;-56
2023/10/09 06:25:51;;;;;;;;;;;;;;;17.86;48.57;101935.63;4948974;28;1968;-60
2023/10/09 06:28:18;;;;;;;;;;;;;;;17.21;48.30;101926.97;4957644;29;989;-59
2023/10/09 06:30:47;;;;;;;;;;;;;;;17.07;47.36;101929.19;4957819;28;1161;-59
2023/10/09 06:33:29;;;;;;;;;;;;;;;16.87;47.23;101932.41;4960770;29;1378;-59
2023/10/09 06:35:55;;;;;;;;;;;;;;;17.52;48.34;101929.38;4961160;29;1200;-59
2023/10/09 06:38:33;;;;;;;;;;;;;;;17.09;47.93;101931.69;4961775;28;1290;-59
2023/10/09 06:43:31;;;;;;;;;;;;;;;17.41;49.01;101931.94;4961016;28;1021;-58
2023/10/09 06:45:58;;;;;;;;;;;;;;;17.19;47.86;101931.03;4960665;28;1987;-58
2023/10/09 06:51:12;;;;;;;;;;;;;;;17.56;48.70;101931.34;4974921;28;1152;-58
2023/10/09 06:56:24;;;;;;;;;;;;;;;16.97;47.04;101937.28;4973755;28;1170;-57
2023/10/09 06:58:54;;;;;;;;;;;;;;;17.39;47.29;101942.38;4960868;28;1115;-58
2023/10/09 07:01:25;;;;;;;;;;;;;;;17.39;48.12;101930.53;4960962;28;1508;-55
2023/10/09 07:03:53;;;;;;;;;;;;;;;17.16;47.26;101937.03;4960993;28;1058;-59
2023/10/09 07:06:47;;;;;;;;;;;;;;;18.21;47.97;101930.88;4954795;29;1906;-57
2023/10/09 07:15:01;;;;;;;;;;;;;;;17.00;47.03;101923.03;4958110;29;1112;-61
2023/10/09 07:24:49;;;;;;;;;;;;;;;17.01;46.91;101929.34;4947347;29;882;-58
2023/10/09 07:27:43;;;;;;;;;;;;;;;17.94;47.78;101934.41;4958578;29;1918;-58
2023/10/09 07:30:35;;;;;;;;;;;;;;;17.23;48.33;101927.53;4947783;29;1334;-58
2023/10/09 07:32:52;;;;;;;;;;;;;;;17.10;46.91;101931.44;4960359;29;1480;-46
2023/10/09 07:35:46;;;;;;;;;;;;;;;17.74;47.68;101924.75;4959850;29;1535;-48
2023/10/09 07:38:03;;;;;;;;;;;;;;;17.49;48.23;101927.09;4960198;29;1310;-49
2023/10/09 07:40:31;;;;;;;;;;;;;;;17.18;47.46;101918.38;4960418;29;1064;-44
2023/10/09 07:43:05;;;;;;;;;;;;;;;17.97;48.33;101925.63;4947400;29;1230;-46
2023/10/09 07:48:05;;;;;;;;;;;;;;;17.18;47.31;101912.88;4949908;29;1918;-48
2023/10/09 07:50:48;;;;;;;;;;;;;;;17.09;46.84;101918.78;4960185;29;1097;-48
2023/10/09 07:53:26;;;;;;;;;;;;;;;18.05;47.84;101914.16;4959642;29;1124;-46
2023/10/09 07:55:55;;;;;;;;;;;;;;;17.39;48.13;101914.03;4959438;28;1123;-49
2023/10/09 07:58:27;;;;;;;;;;;;;;;17.20;47.26;101918.97;4959406;28;1303;-50
2023/10/09 08:01:08;;;;;;;;;;;;;;;17.08;46.61;101914.38;4955510;28;1227;-50
2023/10/09 08:03:36;;;;;;;;;;;;;;;18.00;47.47;101916.84;4949559;29;1104;-49
2023/10/09 08:09:47;;;;;;;;;;;;;;;17.10;47.35;101906.72;4954542;29;924;-52
2023/10/09 08:12:13;;;;;;;;;;;;;;;18.16;47.37;101911.53;4945258;28;1396;-46
2023/10/09 08:14:43;;;;;;;;;;;;;;;17.32;47.83;101908.72;4949777;29;1176;-51
2023/10/09 08:20:12;;;;;;;;;;;;;;;17.04;46.62;101902.22;4948939;29;1172;-47
2023/10/09 08:22:42;;;;;;;;;;;;;;;17.62;47.86;101893.75;4951216;29;1200;-46
2023/10/09 08:25:08;;;;;;;;;;;;;;;17.23;47.30;101891.78;4956198;29;919;-48
2023/10/09 08:33:03;;;;;;;;;;;;;;;17.78;47.67;101914.03;4927327;29;1937;-52
2023/10/09 08:35:35;;;;;;;;;;;;;;;17.27;47.61;101900.38;4946467;29;2091;-51
2023/10/09 08:38:10;;;;;;;;;;;;;;;18.20;47.81;101901.69;4957599;29;2006;-54
2023/10/09 08:40:39;;;;;;;;;;;;;;;17.42;48.18;101906.13;4957169;29;2028;-56
2023/10/09 08:43:08;;;;;;;;;;;;;;;17.27;47.00;101912.19;4952679;29;2263;-53
2023/10/09 08:45:39;;;;;;;;;;;;;;;17.16;46.40;101890.31;4940223;29;2113;-54
2023/10/09 08:48:07;;;;;;;;;;;;;;;17.48;46.99;101895.22;4940552;29;1968;-53
2023/10/09 08:50:34;;;;;;;;;;;;;;;17.60;48.33;101893.19;4941948;29;994;-55
2023/10/09 08:53:00;;;;;;;;;;;;;;;17.37;47.52;101891.47;4957576;29;1062;-53
2023/10/09 08:55:25;;;;;;;;;;;;;;;17.22;46.67;101886.56;4956736;28;1124;-53
2023/10/09 08:57:52;;;;;;;;;;;;;;;18.18;47.27;101885.41;4962113;28;1123;-51
2023/10/09 09:00:33;;;;;;;;;;;;;;;17.53;47.77;101879.59;4956064;29;1549;-52
2023/10/09 09:03:00;;;;;;;;;;;;;;;17.22;47.35;101881.06;4939392;29;1117;-52
2023/10/09 09:05:28;;;;;;;;;;;;;;;17.20;46.49;101881.31;4942596;29;1029;-55
2023/10/09 09:07:56;;;;;;;;;;;;;;;17.05;46.28;101881.88;4957731;29;1914;-53
2023/10/09 09:10:34;;;;;;;;;;;;;;;16.97;45.73;101874.09;4953775;29;1065;-53
2023/10/09 09:13:03;;;;;;;;;;;;;;;18.01;47.18;101881.91;4938854;29;1038;-54
2023/10/09 09:15:32;;;;;;;;;;;;;;;17.30;47.86;101880.63;4950049;29;2531;-53
2023/10/09 09:18:11;;;;;;;;;;;;;;;17.14;46.97;101865.84;4957785;29;1076;-54
2023/10/09 09:20:45;;;;;;;;;;;;;;;17.27;46.89;101872.91;4957669;29;1025;-53
2023/10/09 09:23:12;;;;;;;;;;;;;;;17.76;47.69;101859.28;4957620;29;1046;-56
2023/10/09 09:25:44;;;;;;;;;;;;;;;17.24;47.53;101852.22;4951298;29;880;-52
2023/10/09 09:28:19;;;;;;;;;;;;;;;17.21;46.58;101846.44;4958082;29;1935;-55
2023/10/09 09:30:50;;;;;;;;;;;;;;;17.73;47.65;101848.78;4958223;29;1074;-55
2023/10/09 09:33:26;;;;;;;;;;;;;;;17.38;47.04;101841.72;4945662;29;1075;-54
2023/10/09 09:35:55;;;;;;;;;;;;;;;17.15;46.54;101841.91;4943473;29;1093;-53
2023/10/09 09:38:23;;;;;;;;;;;;;;;17.82;47.28;101848.34;4947659;29;1037;-54
2023/10/09 09:40:53;;;;;;;;;;;;;;;17.44;47.56;101840.69;4956705;29;1134;-52
2023/10/09 09:43:22;;;;;;;;;;;;;;;17.21;46.73;101829.94;4957144;28;1260;-52
2023/10/09 09:45:49;;;;;;;;;;;;;;;17.13;46.21;101833.94;4961260;28;2323;-53
2023/10/09 09:48:16;;;;;;;;;;;;;;;16.98;45.97;101826.28;4960291;28;1238;-50
2023/10/09 09:50:44;;;;;;;;;;;;;;;16.90;45.53;101812.94;4960358;28;1384;-51
2023/10/09 09:53:23;;;;;;;;;;;;;;;17.37;45.94;101818.06;4960291;28;1381;-51
2023/10/09 09:55:57;;;;;;;;;;;;;;;17.58;47.27;101812.84;4956163;28;1080;-57
2023/10/09 09:58:24;;;;;;;;;;;;;;;17.17;47.21;101804.03;4958016;28;1361;-51
2023/10/09 10:00:54;;;;;;;;;;;;;;;17.09;46.38;101805.28;4946987;28;1271;-53
2023/10/09 10:03:25;;;;;;;;;;;;;;;18.34;46.76;101803.84;4954218;28;1452;-53
2023/10/09 10:05:51;;;;;;;;;;;;;;;17.42;47.41;101790.63;4958823;28;1911;-49
2023/10/09 10:08:20;;;;;;;;;;;;;;;17.18;46.90;101786.44;4961512;28;1116;-55
2023/10/09 10:11:04;;;;;;;;;;;;;;;17.14;46.06;101788.88;4960747;28;1362;-53
2023/10/09 10:13:41;;;;;;;;;;;;;;;17.01;45.71;101795.56;4956551;28;1203;-48
2023/10/09 10:16:13;;;;;;;;;;;;;;;16.95;45.33;101787.50;4961357;28;2574;-51
2023/10/09 10:19:38;;;;;;;;;;;;;;;17.69;46.67;101778.88;4958167;28;1338;-51
2023/10/09 10:21:48;;;;;;;;;;;;;;;17.19;46.83;101777.13;4962461;28;1718;-52
2023/10/09 10:24:23;;;;;;;;;;;;;;;17.01;46.24;101776.31;4947373;28;1098;-55
2023/10/09 10:26:53;;;;;;;;;;;;;;;18.12;46.75;101777.19;4957969;28;1977;-48
2023/10/09 10:29:34;;;;;;;;;;;;;;;17.48;47.47;101771.47;4959770;28;1414;-53
2023/10/09 10:32:01;;;;;;;;;;;;;;;17.26;46.77;101764.00;4958606;28;1160;-50
2023/10/09 10:34:26;;;;;;;;;;;;;;;17.14;46.14;101763.28;4969198;28;1179;-52
2023/10/09 10:36:58;;;;;;;;;;;;;;;17.17;46.32;101751.81;4963045;28;1191;-50
2023/10/09 10:39:42;;;;;;;;;;;;;;;17.51;46.99;101747.00;4961632;28;1468;-52
2023/10/09 10:42:09;;;;;;;;;;;;;;;17.18;46.53;101754.31;4963027;28;1061;-55
2023/10/09 10:44:38;;;;;;;;;;;;;;;17.08;45.64;101749.50;4955379;29;1105;-55
2023/10/09 10:47:04;;;;;;;;;;;;;;;17.82;46.67;101746.56;4954517;29;1910;-53
2023/10/09 10:49:40;;;;;;;;;;;;;;;17.27;46.98;101751.94;4951111;28;1215;-51
2023/10/09 10:52:17;;;;;;;;;;;;;;;17.01;46.30;101737.00;4960035;28;1231;-55
2023/10/09 10:57:30;;;;;;;;;;;;;;;17.85;46.90;101718.50;4953113;29;1185;-50
2023/10/09 11:01:11;;;;;;;;;;;;;;;17.35;46.97;101713.00;4961078;29;1017;-51
2023/10/09 11:04:07;;;;;;;;;;;;;;;17.07;46.33;101706.59;4959945;28;1107;-52
2023/10/09 11:05:55;;;;;;;;;;;;;;;17.61;47.32;101713.31;4941487;29;1902;-52
2023/10/09 11:08:23;;;;;;;;;;;;;;;17.23;47.08;101701.31;4948558;28;1072;-54
2023/10/09 11:10:50;;;;;;;;;;;;;;;17.12;46.42;101702.25;4960801;29;1078;-54
2023/10/09 11:13:33;;;;;;;;;;;;;;;17.31;46.67;101691.81;4956152;28;1068;-55
2023/10/09 11:16:28;;;;;;;;;;;;;;;17.58;46.86;101686.31;4960810;29;1069;-52
2023/10/09 11:18:56;;;;;;;;;;;;;;;17.13;46.63;101688.28;4950195;29;1118;-54
2023/10/09 11:24:34;;;;;;;;;;;;;;;18.21;46.04;101683.13;4959375;29;1612;-53
2023/10/09 11:26:40;;;;;;;;;;;;;;;17.46;46.85;101683.72;4947341;29;1981;-53
2023/10/09 11:29:13;;;;;;;;;;;;;;;17.26;46.32;101676.91;4959145;29;1050;-49
2023/10/09 11:31:39;;;;;;;;;;;;;;;17.26;45.58;101673.31;4960126;29;1060;-52
2023/10/09 11:34:06;;;;;;;;;;;;;;;17.31;45.85;101670.63;4946943;29;1255;-51
2023/10/09 11:36:34;;;;;;;;;;;;;;;17.84;46.96;101661.81;4946582;29;1306;-53
2023/10/09 11:39:13;;;;;;;;;;;;;;;17.48;46.57;101669.72;4959907;29;1028;-54
2023/10/09 11:41:41;;;;;;;;;;;;;;;17.27;46.21;101655.72;4959994;29;1066;-52
2023/10/09 11:44:06;;;;;;;;;;;;;;;17.17;45.69;101647.38;4960160;29;1311;-51
2023/10/09 11:46:50;;;;;;;;;;;;;;;17.06;45.44;101635.41;4958865;29;1902;-50
2023/10/09 11:52:03;;;;;;;;;;;;;;;17.92;45.79;101637.47;4959182;29;1049;-52
2023/10/09 11:54:31;;;;;;;;;;;;;;;17.30;46.53;101635.97;4952464;29;1642;-53
2023/10/09 11:56:57;;;;;;;;;;;;;;;17.13;45.75;101616.00;4954403;29;1030;-51
2023/10/09 11:59:23;;;;;;;;;;;;;;;18.08;46.13;101616.41;4952030;29;1092;-50
2023/10/09 12:01:52;;;;;;;;;;;;;;;17.53;47.14;101614.75;4957095;29;1457;-47
2023/10/09 12:04:18;;;;;;;;;;;;;;;17.19;46.73;101612.22;4959459;29;1421;-48
2023/10/09 12:10:24;;;;;;;;;;;;;;;18.31;46.15;101589.56;4957099;28;1066;-50
2023/10/09 12:12:51;;;;;;;;;;;;;;;17.47;46.89;101591.06;4951154;29;1087;-51
2023/10/09 12:15:17;;;;;;;;;;;;;;;17.20;46.44;101589.16;4953566;29;907;-49
2023/10/09 12:17:47;;;;;;;;;;;;;;;17.22;45.48;101568.56;4951342;29;1420;-45
2023/10/09 12:20:50;;;;;;;;;;;;;;;17.87;46.36;101574.09;4955278;29;1607;-50
2023/10/09 12:23:07;;;;;;;;;;;;;;;17.23;46.78;101566.63;4955657;28;1256;-45
2023/10/09 12:25:34;;;;;;;;;;;;;;;17.17;45.87;101551.19;4957003;28;1331;-50
2023/10/09 12:28:03;;;;;;;;;;;;;;;17.02;45.30;101558.16;4955106;28;1915;-44
2023/10/09 12:30:29;;;;;;;;;;;;;;;17.74;46.09;101564.38;4958263;28;1219;-46
2023/10/09 12:32:54;;;;;;;;;;;;;;;17.33;46.22;101568.66;4959451;29;1077;-44
2023/10/09 12:35:20;;;;;;;;;;;;;;;17.83;46.33;101561.97;4955733;28;1300;-47
2023/10/09 12:37:46;;;;;;;;;;;;;;;17.65;46.86;101565.13;4943842;29;1243;-44
2023/10/09 12:40:12;;;;;;;;;;;;;;;17.33;46.28;101552.97;4955817;29;1125;-47
2023/10/09 12:42:37;;;;;;;;;;;;;;;17.16;46.06;101557.75;4959081;29;1076;-44
2023/10/09 12:45:09;;;;;;;;;;;;;;;17.15;45.51;101542.34;4956563;29;1130;-48
2023/10/09 12:47:37;;;;;;;;;;;;;;;18.27;45.84;101539.75;4955725;28;1910;-43
2023/10/09 12:50:09;;;;;;;;;;;;;;;17.53;46.56;101548.75;4958800;29;1085;-41
2023/10/09 12:52:37;;;;;;;;;;;;;;;17.27;46.11;101543.03;4959273;28;1188;-42
2023/10/09 12:55:07;;;;;;;;;;;;;;;17.53;46.25;101541.38;4958670;29;1139;-45
2023/10/09 12:57:33;;;;;;;;;;;;;;;17.56;46.72;101532.59;4950619;28;1152;-43
2023/10/09 12:59:59;;;;;;;;;;;;;;;17.30;46.23;101527.94;4955585;28;1306;-47
2023/10/09 13:02:30;;;;;;;;;;;;;;;17.73;46.51;101531.63;4957027;29;1338;-42
2023/10/09 13:05:00;;;;;;;;;;;;;;;17.65;46.53;101527.44;4956106;29;1480;-42
2023/10/09 13:07:25;;;;;;;;;;;;;;;17.36;46.40;101527.75;4957332;29;1902;-43
2023/10/09 13:10:13;;;;;;;;;;;;;;;17.26;45.48;101530.38;4958550;29;1209;-44
2023/10/09 13:12:41;;;;;;;;;;;;;;;17.59;45.93;101526.56;4949233;29;1281;-43
2023/10/09 13:15:10;;;;;;;;;;;;;;;17.68;46.84;101510.38;4957552;29;1088;-46
2023/10/09 13:17:36;;;;;;;;;;;;;;;17.26;46.77;101513.88;4957686;29;1049;-45
2023/10/09 13:20:03;;;;;;;;;;;;;;;17.25;45.68;101506.72;4952541;28;2486;-44
2023/10/09 13:22:30;;;;;;;;;;;;;;;17.41;46.32;101504.97;4938675;29;1002;-45
2023/10/09 13:25:03;;;;;;;;;;;;;;;17.71;46.67;101498.03;4952015;29;1002;-45
2023/10/09 13:27:33;;;;;;;;;;;;;;;17.40;46.17;101498.66;4958119;28;1972;-46
2023/10/09 13:30:05;;;;;;;;;;;;;;;17.17;45.69;101477.81;4959983;28;997;-45
2023/10/09 13:32:35;;;;;;;;;;;;;;;17.15;45.18;101479.16;4958064;28;1373;-42
2023/10/09 13:35:05;;;;;;;;;;;;;;;18.27;45.78;101484.69;4957980;28;1314;-45
2023/10/09 13:37:36;;;;;;;;;;;;;;;17.48;46.62;101480.00;4957499;28;1050;-44
2023/10/09 13:40:11;;;;;;;;;;;;;;;17.28;46.31;101482.31;4957855;28;1335;-47
2023/10/09 13:42:37;;;;;;;;;;;;;;;17.17;45.48;101483.31;4957472;29;1334;-46
2023/10/09 13:45:15;;;;;;;;;;;;;;;17.64;45.83;101459.75;4946823;28;2208;-42
2023/10/09 13:47:44;;;;;;;;;;;;;;;17.51;46.47;101460.22;4952004;29;1902;-43
2023/10/09 13:50:10;;;;;;;;;;;;;;;17.22;46.04;101455.88;4945781;29;1111;-43
2023/10/09 13:52:39;;;;;;;;;;;;;;;17.07;45.44;101456.56;4956657;29;1140;-44
2023/10/09 13:55:15;;;;;;;;;;;;;;;17.03;45.05;101449.91;4958108;29;1128;-43
2023/10/09 13:57:43;;;;;;;;;;;;;;;17.95;45.91;101451.75;4945589;29;1295;-45
2023/10/09 14:00:10;;;;;;;;;;;;;;;17.35;45.89;101451.00;4945178;29;1306;-47
2023/10/09 14:02:36;;;;;;;;;;;;;;;17.21;45.51;101443.22;4957526;29;922;-48
2023/10/09 14:05:03;;;;;;;;;;;;;;;17.23;45.85;101446.50;4957752;29;1069;-45
2023/10/09 14:07:29;;;;;;;;;;;;;;;17.89;45.96;101436.28;4950433;29;1911;-47
2023/10/09 14:10:07;;;;;;;;;;;;;;;17.35;46.03;101446.34;4951783;29;2411;-44
2023/10/09 14:12:34;;;;;;;;;;;;;;;17.16;45.80;101445.09;4949898;29;2505;-43
2023/10/09 14:15:00;;;;;;;;;;;;;;;17.97;45.88;101441.31;4950833;29;1829;-43
2023/10/09 14:17:27;;;;;;;;;;;;;;;17.44;46.15;101439.25;4944959;29;2106;-45
2023/10/09 14:19:53;;;;;;;;;;;;;;;17.22;45.75;101435.78;4956786;29;2049;-42
2023/10/09 14:22:26;;;;;;;;;;;;;;;17.98;45.74;101428.34;4950990;29;2191;-46
2023/10/09 14:24:55;;;;;;;;;;;;;;;17.52;46.25;101429.72;4944171;29;1787;-48
2023/10/09 14:27:23;;;;;;;;;;;;;;;17.28;45.82;101429.25;4945696;29;1910;-45
2023/10/09 14:29:49;;;;;;;;;;;;;;;17.18;45.75;101429.16;4950916;29;1178;-42
2023/10/09 14:32:14;;;;;;;;;;;;;;;18.03;45.99;101428.41;4938310;29;986;-45
2023/10/09 14:34:49;;;;;;;;;;;;;;;17.45;46.25;101429.94;4955622;29;1011;-44
2023/10/09 14:37:19;;;;;;;;;;;;;;;17.23;45.45;101427.28;4945608;29;1070;-48
2023/10/09 14:39:50;;;;;;;;;;;;;;;17.17;44.93;101424.78;4942559;29;1182;-46
2023/10/09 14:42:16;;;;;;;;;;;;;;;17.10;45.28;101420.31;4951266;29;1094;-50
2023/10/09 14:44:44;;;;;;;;;;;;;;;17.91;45.83;101420.38;4956782;29;1175;-45
2023/10/09 14:47:10;;;;;;;;;;;;;;;17.37;45.93;101419.41;4957308;29;1990;-45
2023/10/09 14:49:43;;;;;;;;;;;;;;;17.28;45.46;101419.09;4957027;29;1057;-45